Aviation Digital Data Service (ADDS)

Output produced by TAFs form (1803 UTC 28 November 2014)
found at http://aviationweather.gov/adds/tafs/
 
KRIL 281721Z 2818/2918 29004KT P6SM BKN200 
     FM290300 00000KT P6SM SKC